sensor_id;sensor_type;location;lat;lon;timestamp;temperature;humidity
41720;DHT22;27405;53.316;-6.294;2023-04-23T00:00:04;9.50;99.90
41720;DHT22;27405;53.316;-6.294;2023-04-23T00:02:33;9.50;99.90
41720;DHT22;27405;53.316;-6.294;2023-04-23T00:05:03;9.50;99.90
41720;DHT22;27405;53.316;-6.294;2023-04-23T00:07:34;9.50;99.90
41720;DHT22;27405;53.316;-6.294;2023-04-23T00:10:00;9.50;99.90
41720;DHT22;27405;53.316;-6.294;2023-04-23T00:12:29;9.50;99.90
41720;DHT22;27405;53.316;-6.294;2023-04-23T00:14:55;9.40;99.90
41720;DHT22;27405;53.316;-6.294;2023-04-23T00:17:21;9.40;99.90
41720;DHT22;27405;53.316;-6.294;2023-04-23T00:19:46;9.40;99.90
41720;DHT22;27405;53.316;-6.294;2023-04-23T00:22:17;9.40;99.90
41720;DHT22;27405;53.316;-6.294;2023-04-23T00:24:45;9.30;99.90
41720;DHT22;27405;53.316;-6.294;2023-04-23T00:27:11;9.30;99.90
41720;DHT22;27405;53.316;-6.294;2023-04-23T00:29:37;9.30;99.90
41720;DHT22;27405;53.316;-6.294;2023-04-23T00:32:02;9.30;99.90
41720;DHT22;27405;53.316;-6.294;2023-04-23T00:34:28;9.20;99.90
41720;DHT22;27405;53.316;-6.294;2023-04-23T00:36:54;9.20;99.90
41720;DHT22;27405;53.316;-6.294;2023-04-23T00:39:20;9.20;99.90
41720;DHT22;27405;53.316;-6.294;2023-04-23T00:41:46;9.10;99.90
41720;DHT22;27405;53.316;-6.294;2023-04-23T00:44:12;9.10;99.90
41720;DHT22;27405;53.316;-6.294;2023-04-23T00:46:38;9.10;99.90
41720;DHT22;27405;53.316;-6.294;2023-04-23T00:49:04;9.10;99.90
41720;DHT22;27405;53.316;-6.294;2023-04-23T00:51:30;9.10;99.90
41720;DHT22;27405;53.316;-6.294;2023-04-23T00:53:58;9.10;99.90
41720;DHT22;27405;53.316;-6.294;2023-04-23T00:56:24;9.00;99.90
41720;DHT22;27405;53.316;-6.294;2023-04-23T00:58:51;9.10;99.90
41720;DHT22;27405;53.316;-6.294;2023-04-23T01:01:18;9.00;99.90
41720;DHT22;27405;53.316;-6.294;2023-04-23T01:03:45;9.00;99.90
41720;DHT22;27405;53.316;-6.294;2023-04-23T01:06:13;9.00;99.90
41720;DHT22;27405;53.316;-6.294;2023-04-23T01:08:39;9.00;99.90
41720;DHT22;27405;53.316;-6.294;2023-04-23T01:11:08;8.90;99.90
41720;DHT22;27405;53.316;-6.294;2023-04-23T01:13:36;9.00;99.90
41720;DHT22;27405;53.316;-6.294;2023-04-23T01:16:01;8.90;99.90
41720;DHT22;27405;53.316;-6.294;2023-04-23T01:18:27;8.90;99.90
41720;DHT22;27405;53.316;-6.294;2023-04-23T01:20:54;8.90;99.90
41720;DHT22;27405;53.316;-6.294;2023-04-23T01:23:20;8.90;99.90
41720;DHT22;27405;53.316;-6.294;2023-04-23T01:25:46;8.80;99.90
41720;DHT22;27405;53.316;-6.294;2023-04-23T01:28:13;8.80;99.90
41720;DHT22;27405;53.316;-6.294;2023-04-23T01:30:41;8.70;99.90
41720;DHT22;27405;53.316;-6.294;2023-04-23T01:33:07;8.70;99.90
41720;DHT22;27405;53.316;-6.294;2023-04-23T01:35:35;8.70;99.90
41720;DHT22;27405;53.316;-6.294;2023-04-23T01:38:02;8.70;99.90
41720;DHT22;27405;53.316;-6.294;2023-04-23T01:40:28;8.70;99.90
41720;DHT22;27405;53.316;-6.294;2023-04-23T01:42:55;8.60;99.90
41720;DHT22;27405;53.316;-6.294;2023-04-23T01:45:21;8.60;99.90
41720;DHT22;27405;53.316;-6.294;2023-04-23T01:47:47;8.60;99.90
41720;DHT22;27405;53.316;-6.294;2023-04-23T01:50:13;8.60;99.90
41720;DHT22;27405;53.316;-6.294;2023-04-23T01:52:39;8.50;99.90
41720;DHT22;27405;53.316;-6.294;2023-04-23T01:55:07;8.50;99.90
41720;DHT22;27405;53.316;-6.294;2023-04-23T01:57:33;8.40;99.90
41720;DHT22;27405;53.316;-6.294;2023-04-23T02:00:04;8.40;99.90
41720;DHT22;27405;53.316;-6.294;2023-04-23T02:02:33;8.40;99.90
41720;DHT22;27405;53.316;-6.294;2023-04-23T02:05:00;8.40;99.90
41720;DHT22;27405;53.316;-6.294;2023-04-23T02:07:33;8.40;99.90
41720;DHT22;27405;53.316;-6.294;2023-04-23T02:09:59;8.40;99.90
41720;DHT22;27405;53.316;-6.294;2023-04-23T02:12:26;8.40;99.90
41720;DHT22;27405;53.316;-6.294;2023-04-23T02:14:52;8.40;99.90
41720;DHT22;27405;53.316;-6.294;2023-04-23T02:17:21;8.40;99.90
41720;DHT22;27405;53.316;-6.294;2023-04-23T02:19:48;8.40;99.90
41720;DHT22;27405;53.316;-6.294;2023-04-23T02:22:15;8.40;99.90
41720;DHT22;27405;53.316;-6.294;2023-04-23T02:24:41;8.40;99.90
41720;DHT22;27405;53.316;-6.294;2023-04-23T02:27:07;8.40;99.90
41720;DHT22;27405;53.316;-6.294;2023-04-23T02:29:33;8.40;99.90
41720;DHT22;27405;53.316;-6.294;2023-04-23T02:31:59;8.40;99.90
41720;DHT22;27405;53.316;-6.294;2023-04-23T02:34:25;8.40;99.90
41720;DHT22;27405;53.316;-6.294;2023-04-23T02:36:50;8.40;99.90
41720;DHT22;27405;53.316;-6.294;2023-04-23T02:39:17;8.40;99.90
41720;DHT22;27405;53.316;-6.294;2023-04-23T02:41:42;8.40;99.90
41720;DHT22;27405;53.316;-6.294;2023-04-23T02:44:08;8.40;99.90
41720;DHT22;27405;53.316;-6.294;2023-04-23T02:46:34;8.40;99.90
41720;DHT22;27405;53.316;-6.294;2023-04-23T02:49:02;8.40;99.90
41720;DHT22;27405;53.316;-6.294;2023-04-23T02:51:28;8.40;99.90
41720;DHT22;27405;53.316;-6.294;2023-04-23T02:53:54;8.40;99.90
41720;DHT22;27405;53.316;-6.294;2023-04-23T02:56:19;8.40;99.90
41720;DHT22;27405;53.316;-6.294;2023-04-23T02:58:45;8.40;99.90
41720;DHT22;27405;53.316;-6.294;2023-04-23T03:01:11;8.40;99.90
41720;DHT22;27405;53.316;-6.294;2023-04-23T03:03:37;8.30;99.90
41720;DHT22;27405;53.316;-6.294;2023-04-23T03:06:03;8.30;99.90
41720;DHT22;27405;53.316;-6.294;2023-04-23T03:08:29;8.30;99.90
41720;DHT22;27405;53.316;-6.294;2023-04-23T03:10:54;8.30;99.90
41720;DHT22;27405;53.316;-6.294;2023-04-23T03:13:20;8.20;99.90
41720;DHT22;27405;53.316;-6.294;2023-04-23T03:15:50;8.20;99.90
41720;DHT22;27405;53.316;-6.294;2023-04-23T03:18:16;8.20;99.90
41720;DHT22;27405;53.316;-6.294;2023-04-23T03:20:41;8.20;99.90
41720;DHT22;27405;53.316;-6.294;2023-04-23T03:23:07;8.20;99.90
41720;DHT22;27405;53.316;-6.294;2023-04-23T03:25:33;8.20;99.90
41720;DHT22;27405;53.316;-6.294;2023-04-23T03:27:59;8.20;99.90
41720;DHT22;27405;53.316;-6.294;2023-04-23T03:30:26;8.20;99.90
41720;DHT22;27405;53.316;-6.294;2023-04-23T03:32:54;8.20;99.90
41720;DHT22;27405;53.316;-6.294;2023-04-23T03:35:20;8.20;99.90
41720;DHT22;27405;53.316;-6.294;2023-04-23T03:37:46;8.20;99.90
41720;DHT22;27405;53.316;-6.294;2023-04-23T03:40:12;8.10;99.90
41720;DHT22;27405;53.316;-6.294;2023-04-23T03:42:37;8.10;99.90
41720;DHT22;27405;53.316;-6.294;2023-04-23T03:45:03;8.10;99.90
41720;DHT22;27405;53.316;-6.294;2023-04-23T03:47:29;8.10;99.90
41720;DHT22;27405;53.316;-6.294;2023-04-23T03:49:55;8.10;99.90
41720;DHT22;27405;53.316;-6.294;2023-04-23T03:52:21;8.10;99.90
41720;DHT22;27405;53.316;-6.294;2023-04-23T03:54:47;8.10;99.90
41720;DHT22;27405;53.316;-6.294;2023-04-23T03:57:12;8.10;99.90
41720;DHT22;27405;53.316;-6.294;2023-04-23T03:59:38;8.10;99.90
41720;DHT22;27405;53.316;-6.294;2023-04-23T04:02:04;8.10;99.90
41720;DHT22;27405;53.316;-6.294;2023-04-23T04:04:30;8.10;99.90
41720;DHT22;27405;53.316;-6.294;2023-04-23T04:06:57;8.10;99.90
41720;DHT22;27405;53.316;-6.294;2023-04-23T04:09:25;8.10;99.90
41720;DHT22;27405;53.316;-6.294;2023-04-23T04:11:51;8.10;99.90
41720;DHT22;27405;53.316;-6.294;2023-04-23T04:14:18;8.10;99.90
41720;DHT22;27405;53.316;-6.294;2023-04-23T04:16:44;8.10;99.90
41720;DHT22;27405;53.316;-6.294;2023-04-23T04:19:09;8.10;99.90
41720;DHT22;27405;53.316;-6.294;2023-04-23T04:21:35;8.00;99.90
41720;DHT22;27405;53.316;-6.294;2023-04-23T04:24:01;8.00;99.90
41720;DHT22;27405;53.316;-6.294;2023-04-23T04:26:28;8.00;99.90
41720;DHT22;27405;53.316;-6.294;2023-04-23T04:28:54;8.00;99.90
41720;DHT22;27405;53.316;-6.294;2023-04-23T04:31:20;8.00;99.90
41720;DHT22;27405;53.316;-6.294;2023-04-23T04:33:46;8.00;99.90
41720;DHT22;27405;53.316;-6.294;2023-04-23T04:36:12;8.00;99.90
41720;DHT22;27405;53.316;-6.294;2023-04-23T04:38:39;8.00;99.90
41720;DHT22;27405;53.316;-6.294;2023-04-23T04:41:06;8.00;99.90
41720;DHT22;27405;53.316;-6.294;2023-04-23T04:43:32;7.90;99.90
41720;DHT22;27405;53.316;-6.294;2023-04-23T04:45:59;7.90;99.90
41720;DHT22;27405;53.316;-6.294;2023-04-23T04:48:25;7.80;99.90
41720;DHT22;27405;53.316;-6.294;2023-04-23T04:50:51;7.80;99.90
41720;DHT22;27405;53.316;-6.294;2023-04-23T04:53:17;7.80;99.90
41720;DHT22;27405;53.316;-6.294;2023-04-23T04:55:43;7.80;99.90
41720;DHT22;27405;53.316;-6.294;2023-04-23T04:58:09;7.90;99.90
41720;DHT22;27405;53.316;-6.294;2023-04-23T05:00:35;7.90;99.90
41720;DHT22;27405;53.316;-6.294;2023-04-23T05:03:01;7.90;99.90
41720;DHT22;27405;53.316;-6.294;2023-04-23T05:05:27;8.00;99.90
41720;DHT22;27405;53.316;-6.294;2023-04-23T05:07:53;8.00;99.90
41720;DHT22;27405;53.316;-6.294;2023-04-23T05:10:19;8.00;99.90
41720;DHT22;27405;53.316;-6.294;2023-04-23T05:12:45;8.00;99.90
41720;DHT22;27405;53.316;-6.294;2023-04-23T05:15:12;8.00;99.90
41720;DHT22;27405;53.316;-6.294;2023-04-23T05:17:39;8.00;99.90
41720;DHT22;27405;53.316;-6.294;2023-04-23T05:20:05;7.90;99.90
41720;DHT22;27405;53.316;-6.294;2023-04-23T05:22:32;7.90;99.90
41720;DHT22;27405;53.316;-6.294;2023-04-23T05:24:58;7.90;99.90
41720;DHT22;27405;53.316;-6.294;2023-04-23T05:27:24;7.90;99.90
41720;DHT22;27405;53.316;-6.294;2023-04-23T05:29:49;7.90;99.90
41720;DHT22;27405;53.316;-6.294;2023-04-23T05:32:15;8.00;99.90
41720;DHT22;27405;53.316;-6.294;2023-04-23T05:34:41;8.00;99.90
41720;DHT22;27405;53.316;-6.294;2023-04-23T05:37:06;8.00;99.90
41720;DHT22;27405;53.316;-6.294;2023-04-23T05:39:32;8.00;99.90
41720;DHT22;27405;53.316;-6.294;2023-04-23T05:41:57;8.00;99.90
41720;DHT22;27405;53.316;-6.294;2023-04-23T05:44:23;8.00;99.90
41720;DHT22;27405;53.316;-6.294;2023-04-23T05:46:49;8.10;99.90
41720;DHT22;27405;53.316;-6.294;2023-04-23T05:49:15;8.10;99.90
41720;DHT22;27405;53.316;-6.294;2023-04-23T05:51:40;8.10;99.90
41720;DHT22;27405;53.316;-6.294;2023-04-23T05:54:06;8.10;99.90
41720;DHT22;27405;53.316;-6.294;2023-04-23T05:56:32;8.20;99.90
41720;DHT22;27405;53.316;-6.294;2023-04-23T05:58:57;8.20;99.90
41720;DHT22;27405;53.316;-6.294;2023-04-23T06:01:23;8.20;99.90
41720;DHT22;27405;53.316;-6.294;2023-04-23T06:03:49;8.30;99.90
41720;DHT22;27405;53.316;-6.294;2023-04-23T06:06:15;8.30;99.90
41720;DHT22;27405;53.316;-6.294;2023-04-23T06:08:40;8.30;99.90
41720;DHT22;27405;53.316;-6.294;2023-04-23T06:11:06;8.40;99.90
41720;DHT22;27405;53.316;-6.294;2023-04-23T06:13:32;8.30;99.90
41720;DHT22;27405;53.316;-6.294;2023-04-23T06:15:59;8.30;99.90
41720;DHT22;27405;53.316;-6.294;2023-04-23T06:18:25;8.30;99.90
41720;DHT22;27405;53.316;-6.294;2023-04-23T06:20:51;8.30;99.90
41720;DHT22;27405;53.316;-6.294;2023-04-23T06:23:17;8.30;99.90
41720;DHT22;27405;53.316;-6.294;2023-04-23T06:25:43;8.30;99.90
41720;DHT22;27405;53.316;-6.294;2023-04-23T06:28:09;8.20;99.90
41720;DHT22;27405;53.316;-6.294;2023-04-23T06:30:34;8.20;99.90
41720;DHT22;27405;53.316;-6.294;2023-04-23T06:33:01;8.20;99.90
41720;DHT22;27405;53.316;-6.294;2023-04-23T06:35:27;8.20;99.90
41720;DHT22;27405;53.316;-6.294;2023-04-23T06:37:52;8.20;99.90
41720;DHT22;27405;53.316;-6.294;2023-04-23T06:40:18;8.30;99.90
41720;DHT22;27405;53.316;-6.294;2023-04-23T06:42:44;8.40;99.90
41720;DHT22;27405;53.316;-6.294;2023-04-23T06:45:10;8.40;99.90
41720;DHT22;27405;53.316;-6.294;2023-04-23T06:47:36;8.40;99.90
41720;DHT22;27405;53.316;-6.294;2023-04-23T06:50:02;8.50;99.90
41720;DHT22;27405;53.316;-6.294;2023-04-23T06:52:29;8.50;99.90
41720;DHT22;27405;53.316;-6.294;2023-04-23T06:54:54;8.50;99.90
41720;DHT22;27405;53.316;-6.294;2023-04-23T06:57:20;8.60;99.90
41720;DHT22;27405;53.316;-6.294;2023-04-23T06:59:46;8.60;99.90
41720;DHT22;27405;53.316;-6.294;2023-04-23T07:02:12;8.70;99.90
41720;DHT22;27405;53.316;-6.294;2023-04-23T07:04:37;8.70;99.90
41720;DHT22;27405;53.316;-6.294;2023-04-23T07:07:03;8.80;99.90
41720;DHT22;27405;53.316;-6.294;2023-04-23T07:09:29;8.90;99.90
41720;DHT22;27405;53.316;-6.294;2023-04-23T07:11:55;8.90;99.90
41720;DHT22;27405;53.316;-6.294;2023-04-23T07:14:21;9.00;99.90
41720;DHT22;27405;53.316;-6.294;2023-04-23T07:16:47;8.90;99.90
41720;DHT22;27405;53.316;-6.294;2023-04-23T07:19:12;8.90;99.90
41720;DHT22;27405;53.316;-6.294;2023-04-23T07:21:38;8.80;99.90
41720;DHT22;27405;53.316;-6.294;2023-04-23T07:24:04;8.80;99.90
41720;DHT22;27405;53.316;-6.294;2023-04-23T07:26:34;8.80;99.90
41720;DHT22;27405;53.316;-6.294;2023-04-23T07:29:00;8.90;99.90
41720;DHT22;27405;53.316;-6.294;2023-04-23T07:31:26;8.90;99.90
41720;DHT22;27405;53.316;-6.294;2023-04-23T07:33:53;9.00;99.90
41720;DHT22;27405;53.316;-6.294;2023-04-23T07:36:20;9.00;99.90
41720;DHT22;27405;53.316;-6.294;2023-04-23T07:38:47;9.00;99.90
41720;DHT22;27405;53.316;-6.294;2023-04-23T07:41:12;9.10;99.90
41720;DHT22;27405;53.316;-6.294;2023-04-23T07:43:39;9.10;99.90
41720;DHT22;27405;53.316;-6.294;2023-04-23T07:46:06;9.30;99.90
41720;DHT22;27405;53.316;-6.294;2023-04-23T07:48:32;9.40;99.90
41720;DHT22;27405;53.316;-6.294;2023-04-23T07:51:00;9.50;99.90
41720;DHT22;27405;53.316;-6.294;2023-04-23T07:53:26;9.70;99.90
41720;DHT22;27405;53.316;-6.294;2023-04-23T07:55:56;9.80;99.90
41720;DHT22;27405;53.316;-6.294;2023-04-23T07:58:22;9.90;99.90
41720;DHT22;27405;53.316;-6.294;2023-04-23T08:00:47;10.00;99.90
41720;DHT22;27405;53.316;-6.294;2023-04-23T08:03:13;10.00;99.90
41720;DHT22;27405;53.316;-6.294;2023-04-23T08:05:40;10.10;99.90
41720;DHT22;27405;53.316;-6.294;2023-04-23T08:08:07;10.10;99.90
41720;DHT22;27405;53.316;-6.294;2023-04-23T08:10:33;10.20;99.90
41720;DHT22;27405;53.316;-6.294;2023-04-23T08:12:59;10.20;99.90
41720;DHT22;27405;53.316;-6.294;2023-04-23T08:15:25;10.30;99.90
41720;DHT22;27405;53.316;-6.294;2023-04-23T08:17:51;10.30;99.90
41720;DHT22;27405;53.316;-6.294;2023-04-23T08:20:17;10.20;99.90
41720;DHT22;27405;53.316;-6.294;2023-04-23T08:22:43;10.10;99.90
41720;DHT22;27405;53.316;-6.294;2023-04-23T08:25:09;10.00;99.90
41720;DHT22;27405;53.316;-6.294;2023-04-23T08:27:37;9.90;99.90
41720;DHT22;27405;53.316;-6.294;2023-04-23T08:30:03;9.90;99.90
41720;DHT22;27405;53.316;-6.294;2023-04-23T08:32:29;9.90;99.90
41720;DHT22;27405;53.316;-6.294;2023-04-23T08:34:55;10.00;99.90
41720;DHT22;27405;53.316;-6.294;2023-04-23T08:37:20;10.00;99.90
41720;DHT22;27405;53.316;-6.294;2023-04-23T08:39:46;10.00;99.90
41720;DHT22;27405;53.316;-6.294;2023-04-23T08:42:23;10.00;99.90
41720;DHT22;27405;53.316;-6.294;2023-04-23T08:44:51;10.00;99.90
41720;DHT22;27405;53.316;-6.294;2023-04-23T08:47:22;10.10;99.90
41720;DHT22;27405;53.316;-6.294;2023-04-23T08:49:52;10.10;99.90
41720;DHT22;27405;53.316;-6.294;2023-04-23T08:52:22;10.20;99.90
41720;DHT22;27405;53.316;-6.294;2023-04-23T08:54:53;10.30;99.90
41720;DHT22;27405;53.316;-6.294;2023-04-23T08:57:19;10.30;99.90
41720;DHT22;27405;53.316;-6.294;2023-04-23T08:59:46;10.40;99.90
41720;DHT22;27405;53.316;-6.294;2023-04-23T09:02:12;10.50;99.90
41720;DHT22;27405;53.316;-6.294;2023-04-23T09:04:40;10.50;99.90
41720;DHT22;27405;53.316;-6.294;2023-04-23T09:07:06;10.60;99.90
41720;DHT22;27405;53.316;-6.294;2023-04-23T09:09:37;10.70;99.90
41720;DHT22;27405;53.316;-6.294;2023-04-23T09:12:07;10.80;99.90
41720;DHT22;27405;53.316;-6.294;2023-04-23T09:14:34;10.90;99.90
41720;DHT22;27405;53.316;-6.294;2023-04-23T09:17:01;11.00;99.90
41720;DHT22;27405;53.316;-6.294;2023-04-23T09:19:26;11.10;99.90
41720;DHT22;27405;53.316;-6.294;2023-04-23T09:21:53;11.10;99.90
41720;DHT22;27405;53.316;-6.294;2023-04-23T09:24:21;11.20;99.90
41720;DHT22;27405;53.316;-6.294;2023-04-23T09:26:50;11.30;99.90
41720;DHT22;27405;53.316;-6.294;2023-04-23T09:29:20;11.30;99.90
41720;DHT22;27405;53.316;-6.294;2023-04-23T09:31:49;11.40;99.90
41720;DHT22;27405;53.316;-6.294;2023-04-23T09:34:20;11.60;99.90
41720;DHT22;27405;53.316;-6.294;2023-04-23T09:36:48;11.80;99.90
41720;DHT22;27405;53.316;-6.294;2023-04-23T09:39:17;12.00;99.90
41720;DHT22;27405;53.316;-6.294;2023-04-23T09:41:43;12.20;99.90
41720;DHT22;27405;53.316;-6.294;2023-04-23T09:44:10;12.30;99.90
41720;DHT22;27405;53.316;-6.294;2023-04-23T09:46:41;12.40;99.90
41720;DHT22;27405;53.316;-6.294;2023-04-23T09:49:08;12.50;99.90
41720;DHT22;27405;53.316;-6.294;2023-04-23T09:51:36;12.60;99.90
41720;DHT22;27405;53.316;-6.294;2023-04-23T09:54:02;12.70;99.90
41720;DHT22;27405;53.316;-6.294;2023-04-23T09:56:31;12.60;99.90
41720;DHT22;27405;53.316;-6.294;2023-04-23T09:58:57;12.60;99.90
41720;DHT22;27405;53.316;-6.294;2023-04-23T10:01:29;12.60;99.90
41720;DHT22;27405;53.316;-6.294;2023-04-23T10:03:55;12.50;99.90
41720;DHT22;27405;53.316;-6.294;2023-04-23T10:06:31;12.40;99.90
41720;DHT22;27405;53.316;-6.294;2023-04-23T10:08:57;12.40;99.90
41720;DHT22;27405;53.316;-6.294;2023-04-23T10:11:24;12.30;99.90
41720;DHT22;27405;53.316;-6.294;2023-04-23T10:13:50;12.30;99.90
41720;DHT22;27405;53.316;-6.294;2023-04-23T10:16:18;12.30;99.90
41720;DHT22;27405;53.316;-6.294;2023-04-23T10:18:45;12.30;99.90
41720;DHT22;27405;53.316;-6.294;2023-04-23T10:21:13;12.30;99.90
41720;DHT22;27405;53.316;-6.294;2023-04-23T10:23:42;12.40;99.90
41720;DHT22;27405;53.316;-6.294;2023-04-23T10:26:08;12.40;99.90
41720;DHT22;27405;53.316;-6.294;2023-04-23T10:28:38;12.40;99.90
41720;DHT22;27405;53.316;-6.294;2023-04-23T10:31:05;12.30;99.90
41720;DHT22;27405;53.316;-6.294;2023-04-23T10:33:31;12.20;99.90
41720;DHT22;27405;53.316;-6.294;2023-04-23T10:35:58;12.30;99.90
41720;DHT22;27405;53.316;-6.294;2023-04-23T10:38:25;12.30;99.90
41720;DHT22;27405;53.316;-6.294;2023-04-23T10:40:54;12.40;99.90
41720;DHT22;27405;53.316;-6.294;2023-04-23T10:43:21;12.50;99.90
41720;DHT22;27405;53.316;-6.294;2023-04-23T10:45:49;12.70;99.90
41720;DHT22;27405;53.316;-6.294;2023-04-23T10:48:14;12.70;99.90
41720;DHT22;27405;53.316;-6.294;2023-04-23T10:50:41;12.90;99.90
41720;DHT22;27405;53.316;-6.294;2023-04-23T10:53:18;13.10;99.90
41720;DHT22;27405;53.316;-6.294;2023-04-23T10:55:46;13.10;99.90
41720;DHT22;27405;53.316;-6.294;2023-04-23T10:58:11;13.20;99.90
41720;DHT22;27405;53.316;-6.294;2023-04-23T11:05:51;13.20;99.90
41720;DHT22;27405;53.316;-6.294;2023-04-23T11:08:17;13.10;99.90
41720;DHT22;27405;53.316;-6.294;2023-04-23T11:10:56;13.00;99.90
41720;DHT22;27405;53.316;-6.294;2023-04-23T11:13:24;12.90;99.90
41720;DHT22;27405;53.316;-6.294;2023-04-23T11:16:14;12.90;99.90
41720;DHT22;27405;53.316;-6.294;2023-04-23T11:22:15;13.00;99.90
41720;DHT22;27405;53.316;-6.294;2023-04-23T11:24:42;13.00;99.90
41720;DHT22;27405;53.316;-6.294;2023-04-23T11:27:14;13.00;99.90
41720;DHT22;27405;53.316;-6.294;2023-04-23T11:29:42;12.90;99.90
41720;DHT22;27405;53.316;-6.294;2023-04-23T11:32:09;12.70;99.90
41720;DHT22;27405;53.316;-6.294;2023-04-23T11:34:39;12.70;99.90
41720;DHT22;27405;53.316;-6.294;2023-04-23T11:37:08;12.60;99.90
41720;DHT22;27405;53.316;-6.294;2023-04-23T11:39:34;12.60;99.90
41720;DHT22;27405;53.316;-6.294;2023-04-23T11:41:59;12.50;99.90
41720;DHT22;27405;53.316;-6.294;2023-04-23T11:44:27;12.50;99.90
41720;DHT22;27405;53.316;-6.294;2023-04-23T11:46:54;12.50;99.90
41720;DHT22;27405;53.316;-6.294;2023-04-23T11:49:20;12.50;99.90
41720;DHT22;27405;53.316;-6.294;2023-04-23T11:51:47;12.50;99.90
41720;DHT22;27405;53.316;-6.294;2023-04-23T11:54:13;12.60;99.90
41720;DHT22;27405;53.316;-6.294;2023-04-23T11:56:39;12.70;99.90
41720;DHT22;27405;53.316;-6.294;2023-04-23T11:59:05;12.80;99.90
41720;DHT22;27405;53.316;-6.294;2023-04-23T12:01:48;12.90;99.90
41720;DHT22;27405;53.316;-6.294;2023-04-23T12:04:20;13.00;99.90
41720;DHT22;27405;53.316;-6.294;2023-04-23T12:06:47;13.00;99.90
41720;DHT22;27405;53.316;-6.294;2023-04-23T12:09:16;13.10;99.90
41720;DHT22;27405;53.316;-6.294;2023-04-23T12:11:43;13.10;99.90
41720;DHT22;27405;53.316;-6.294;2023-04-23T12:14:11;13.20;99.90
41720;DHT22;27405;53.316;-6.294;2023-04-23T12:16:44;13.30;99.90
41720;DHT22;27405;53.316;-6.294;2023-04-23T12:19:16;13.40;99.90
41720;DHT22;27405;53.316;-6.294;2023-04-23T12:21:51;13.40;99.90
41720;DHT22;27405;53.316;-6.294;2023-04-23T12:24:24;13.50;99.90
41720;DHT22;27405;53.316;-6.294;2023-04-23T12:26:56;13.60;99.90
41720;DHT22;27405;53.316;-6.294;2023-04-23T12:29:23;13.50;99.90
41720;DHT22;27405;53.316;-6.294;2023-04-23T12:31:50;13.50;99.90
41720;DHT22;27405;53.316;-6.294;2023-04-23T12:34:17;13.50;99.90
41720;DHT22;27405;53.316;-6.294;2023-04-23T12:36:49;13.50;99.90
41720;DHT22;27405;53.316;-6.294;2023-04-23T12:39:31;13.50;99.90
41720;DHT22;27405;53.316;-6.294;2023-04-23T12:42:06;13.50;99.90
41720;DHT22;27405;53.316;-6.294;2023-04-23T12:44:35;13.60;99.90
41720;DHT22;27405;53.316;-6.294;2023-04-23T12:47:05;13.80;99.90
41720;DHT22;27405;53.316;-6.294;2023-04-23T12:49:32;14.00;99.90
41720;DHT22;27405;53.316;-6.294;2023-04-23T12:51:59;14.30;99.90
41720;DHT22;27405;53.316;-6.294;2023-04-23T12:54:30;14.40;99.90
41720;DHT22;27405;53.316;-6.294;2023-04-23T12:57:00;14.60;99.90
41720;DHT22;27405;53.316;-6.294;2023-04-23T12:59:29;14.80;99.90
41720;DHT22;27405;53.316;-6.294;2023-04-23T13:01:55;15.00;99.90
41720;DHT22;27405;53.316;-6.294;2023-04-23T13:04:21;15.00;99.90
41720;DHT22;27405;53.316;-6.294;2023-04-23T13:06:48;14.90;99.90
41720;DHT22;27405;53.316;-6.294;2023-04-23T13:09:13;14.70;99.90
41720;DHT22;27405;53.316;-6.294;2023-04-23T13:11:40;14.50;99.90
41720;DHT22;27405;53.316;-6.294;2023-04-23T13:14:06;14.40;99.90
41720;DHT22;27405;53.316;-6.294;2023-04-23T13:16:33;14.40;99.90
41720;DHT22;27405;53.316;-6.294;2023-04-23T13:18:59;14.40;99.90
41720;DHT22;27405;53.316;-6.294;2023-04-23T13:21:25;14.40;99.90
41720;DHT22;27405;53.316;-6.294;2023-04-23T13:23:51;14.60;99.90
41720;DHT22;27405;53.316;-6.294;2023-04-23T13:26:17;14.70;99.90
41720;DHT22;27405;53.316;-6.294;2023-04-23T13:28:43;14.60;99.90
41720;DHT22;27405;53.316;-6.294;2023-04-23T13:31:09;14.60;99.90
41720;DHT22;27405;53.316;-6.294;2023-04-23T13:33:37;14.40;99.90
41720;DHT22;27405;53.316;-6.294;2023-04-23T13:36:03;14.20;99.90
41720;DHT22;27405;53.316;-6.294;2023-04-23T13:38:30;14.10;99.90
41720;DHT22;27405;53.316;-6.294;2023-04-23T13:40:55;13.90;99.90
41720;DHT22;27405;53.316;-6.294;2023-04-23T13:43:21;13.80;99.90
41720;DHT22;27405;53.316;-6.294;2023-04-23T13:45:47;13.80;99.90
41720;DHT22;27405;53.316;-6.294;2023-04-23T13:48:14;13.70;99.90
41720;DHT22;27405;53.316;-6.294;2023-04-23T13:50:43;13.70;99.90
41720;DHT22;27405;53.316;-6.294;2023-04-23T13:53:09;13.70;99.90
41720;DHT22;27405;53.316;-6.294;2023-04-23T13:55:36;13.80;99.90
41720;DHT22;27405;53.316;-6.294;2023-04-23T13:58:05;13.90;99.90
41720;DHT22;27405;53.316;-6.294;2023-04-23T14:00:32;14.00;99.90
41720;DHT22;27405;53.316;-6.294;2023-04-23T14:02:58;14.00;99.90
41720;DHT22;27405;53.316;-6.294;2023-04-23T14:05:24;14.10;99.90
41720;DHT22;27405;53.316;-6.294;2023-04-23T14:07:50;14.20;99.90
41720;DHT22;27405;53.316;-6.294;2023-04-23T14:10:16;14.20;99.90
41720;DHT22;27405;53.316;-6.294;2023-04-23T14:12:43;14.40;99.90
41720;DHT22;27405;53.316;-6.294;2023-04-23T14:15:10;14.40;99.90
41720;DHT22;27405;53.316;-6.294;2023-04-23T14:17:36;14.60;99.90
41720;DHT22;27405;53.316;-6.294;2023-04-23T14:20:04;14.80;99.90
41720;DHT22;27405;53.316;-6.294;2023-04-23T14:22:30;15.00;99.90
41720;DHT22;27405;53.316;-6.294;2023-04-23T14:25:01;15.20;99.90
41720;DHT22;27405;53.316;-6.294;2023-04-23T14:27:33;15.40;99.90
41720;DHT22;27405;53.316;-6.294;2023-04-23T14:30:01;15.60;99.70
41720;DHT22;27405;53.316;-6.294;2023-04-23T14:32:30;15.50;99.30
41720;DHT22;27405;53.316;-6.294;2023-04-23T14:34:55;15.40;99.00
41720;DHT22;27405;53.316;-6.294;2023-04-23T14:37:21;15.30;98.90
41720;DHT22;27405;53.316;-6.294;2023-04-23T14:39:47;15.20;98.90
41720;DHT22;27405;53.316;-6.294;2023-04-23T14:42:13;15.10;98.70
41720;DHT22;27405;53.316;-6.294;2023-04-23T14:44:38;15.00;98.40
41720;DHT22;27405;53.316;-6.294;2023-04-23T14:47:04;14.70;98.20
41720;DHT22;27405;53.316;-6.294;2023-04-23T14:49:32;14.40;98.00
41720;DHT22;27405;53.316;-6.294;2023-04-23T14:51:58;14.00;98.70
41720;DHT22;27405;53.316;-6.294;2023-04-23T14:54:23;13.70;99.40
41720;DHT22;27405;53.316;-6.294;2023-04-23T14:56:50;13.40;99.90
41720;DHT22;27405;53.316;-6.294;2023-04-23T14:59:16;13.20;99.90
41720;DHT22;27405;53.316;-6.294;2023-04-23T15:01:42;12.90;99.90
41720;DHT22;27405;53.316;-6.294;2023-04-23T15:04:11;12.70;99.90
41720;DHT22;27405;53.316;-6.294;2023-04-23T15:06:37;12.50;99.90
41720;DHT22;27405;53.316;-6.294;2023-04-23T15:09:05;12.30;99.90
41720;DHT22;27405;53.316;-6.294;2023-04-23T15:11:31;12.20;99.90
41720;DHT22;27405;53.316;-6.294;2023-04-23T15:14:07;12.20;99.90
41720;DHT22;27405;53.316;-6.294;2023-04-23T15:16:35;12.20;99.90
41720;DHT22;27405;53.316;-6.294;2023-04-23T15:19:03;12.20;99.90
41720;DHT22;27405;53.316;-6.294;2023-04-23T15:21:31;12.30;99.90
41720;DHT22;27405;53.316;-6.294;2023-04-23T15:23:56;12.40;99.90
41720;DHT22;27405;53.316;-6.294;2023-04-23T15:26:22;12.60;99.90
41720;DHT22;27405;53.316;-6.294;2023-04-23T15:28:50;12.70;99.90
41720;DHT22;27405;53.316;-6.294;2023-04-23T15:31:16;12.80;99.90